East Dennis, MA (02641)

12:20 PM EDT on July 03, 2015 (GMT -0400)
Scargo Hill Dennis MA | | Change Station
CLOSE
Current Station
Personal Weather Station
Location: Dennis, MA
Elevation: 133 ft
Nearby Weather Stations

Elev 133 ft 41.74 °N, 70.18 °W | Updated 9 seconds ago

Clear
Clear
69.3 °F
Feels Like 69.3 °F
N
0.0
Wind Variable Wind from WNW
Gusts 3.8 mph

Today
High -- | Low -- °F
--% Chance of Precip.
Yesterday
High -- | Low -- °F
Precip. -- in
5:10 AM 8:18 PM
Full, 97% visible
Pressure 29.95 in
Visibility 10.0 miles
Clouds Clear
Dew Point 68 °F
Humidity 95%
Rainfall 0.02 in
Snow Depth Not available.
UV 12 out of 12
Pollen 4.30 out of 12
Air Quality Not available.
Flu Activity Not available.
METAR KHYA 031556Z 36009KT 10SM CLR 21/12 A2995 RMK AO2 SLP142 T02110117

More Conditions Fewer Conditions

Pressure 29.95 in
Visibility 10.0 miles
Clouds Clear
Dew Point 68 °F
Humidity 95%
Rainfall 0.02 in
Snow Depth Not available.
UV 12 out of 12
Pollen 4.30 out of 12
Air Quality Not available.
Flu Activity Not available.
METAR KHYA 031556Z 36009KT 10SM CLR 21/12 A2995 RMK AO2 SLP142 T02110117

More Conditions Fewer Conditions

10-Day Weather Forecast

×

Almanac

Astronomy

Jul. 03, 2015 Rise Set
Actual Time
Civil Twilight
Nautical Twilight
Astronomical Twilight
Moon
Length of Visible Light
Length of Day
Tomorrow will be .
, % of the Moon is Illuminated

Today's Extremes

State Highs State Lows

Community

WunderPhotos

Upload Photos

1,834,693 photos uploaded!

WunderBlogs® & News

Nearby

Air Quality

  Air Quality AQ Index Pollutant
Not available.

Snow Depth

Station Depth Elevation

Earthquake Activity

City Distance Mag. Time & Date
Minimum magnitude displayed is 2.5.

Coastal Water Temperatures

Place Temperature

Stations

Nearby Weather Stations

Station Location Temp. Windchill Dew Point Humidity Wind Precip. Elev Updated Type